sensor_id;sensor_type;location;lat;lon;timestamp;pressure;altitude;pressure_sealevel;temperature;humidity
64078;BME280;51039;49.696;10.808;2023-09-19T00:01:05;97845.09;;;14.68;100.00
64078;BME280;51039;49.696;10.808;2023-09-19T00:03:33;97849.34;;;14.69;100.00
64078;BME280;51039;49.696;10.808;2023-09-19T00:06:02;97850.16;;;14.70;100.00
64078;BME280;51039;49.696;10.808;2023-09-19T00:08:27;97850.16;;;14.70;100.00
64078;BME280;51039;49.696;10.808;2023-09-19T00:10:53;97846.34;;;14.66;100.00
64078;BME280;51039;49.696;10.808;2023-09-19T00:13:19;97846.13;;;14.67;100.00
64078;BME280;51039;49.696;10.808;2023-09-19T00:15:46;97851.22;;;14.69;100.00
64078;BME280;51039;49.696;10.808;2023-09-19T00:18:15;97846.28;;;14.61;100.00
64078;BME280;51039;49.696;10.808;2023-09-19T00:20:42;97852.66;;;14.60;100.00
64078;BME280;51039;49.696;10.808;2023-09-19T00:23:07;97855.31;;;14.60;100.00
64078;BME280;51039;49.696;10.808;2023-09-19T00:25:36;97865.41;;;14.58;100.00
64078;BME280;51039;49.696;10.808;2023-09-19T00:28:02;97857.06;;;14.54;100.00
64078;BME280;51039;49.696;10.808;2023-09-19T00:30:28;97860.19;;;14.51;100.00
64078;BME280;51039;49.696;10.808;2023-09-19T00:32:54;97866.81;;;14.48;100.00
64078;BME280;51039;49.696;10.808;2023-09-19T00:35:23;97863.59;;;14.46;100.00
64078;BME280;51039;49.696;10.808;2023-09-19T00:37:51;97865.13;;;14.42;100.00
64078;BME280;51039;49.696;10.808;2023-09-19T00:40:17;97876.25;;;14.39;100.00
64078;BME280;51039;49.696;10.808;2023-09-19T00:42:43;97878.09;;;14.39;100.00
64078;BME280;51039;49.696;10.808;2023-09-19T00:45:09;97886.91;;;14.39;100.00
64078;BME280;51039;49.696;10.808;2023-09-19T00:47:39;97887.25;;;14.43;100.00
64078;BME280;51039;49.696;10.808;2023-09-19T00:50:07;97885.16;;;14.45;100.00
64078;BME280;51039;49.696;10.808;2023-09-19T00:52:34;97883.22;;;14.40;100.00
64078;BME280;51039;49.696;10.808;2023-09-19T00:55:03;97880.44;;;14.35;100.00
64078;BME280;51039;49.696;10.808;2023-09-19T00:57:30;97880.44;;;14.35;100.00
64078;BME280;51039;49.696;10.808;2023-09-19T00:59:57;97884.75;;;14.36;100.00
64078;BME280;51039;49.696;10.808;2023-09-19T01:02:24;97880.22;;;14.37;100.00
64078;BME280;51039;49.696;10.808;2023-09-19T01:04:49;97884.41;;;14.32;100.00
64078;BME280;51039;49.696;10.808;2023-09-19T01:07:15;97884.06;;;14.29;100.00
64078;BME280;51039;49.696;10.808;2023-09-19T01:09:42;97892.28;;;14.27;100.00
64078;BME280;51039;49.696;10.808;2023-09-19T01:12:07;97884.78;;;14.24;100.00
64078;BME280;51039;49.696;10.808;2023-09-19T01:14:41;97889.28;;;14.24;100.00
64078;BME280;51039;49.696;10.808;2023-09-19T01:17:21;97882.59;;;14.21;100.00
64078;BME280;51039;49.696;10.808;2023-09-19T01:25:54;97892.97;;;14.34;100.00
64078;BME280;51039;49.696;10.808;2023-09-19T01:28:30;97895.72;;;14.40;100.00
64078;BME280;51039;49.696;10.808;2023-09-19T01:31:19;97897.78;;;14.49;100.00
64078;BME280;51039;49.696;10.808;2023-09-19T01:34:02;97892.06;;;14.58;100.00
64078;BME280;51039;49.696;10.808;2023-09-19T01:36:34;97900.97;;;14.63;100.00
64078;BME280;51039;49.696;10.808;2023-09-19T01:39:04;97907.44;;;14.67;100.00
64078;BME280;51039;49.696;10.808;2023-09-19T01:47:23;97901.31;;;14.84;100.00
64078;BME280;51039;49.696;10.808;2023-09-19T01:50:02;97905.81;;;14.83;100.00
64078;BME280;51039;49.696;10.808;2023-09-19T01:52:38;97908.81;;;14.87;100.00
64078;BME280;51039;49.696;10.808;2023-09-19T01:55:12;97907.06;;;14.92;100.00
64078;BME280;51039;49.696;10.808;2023-09-19T01:57:48;97913.50;;;14.97;100.00
64078;BME280;51039;49.696;10.808;2023-09-19T02:00:19;97915.16;;;14.98;100.00
64078;BME280;51039;49.696;10.808;2023-09-19T02:02:47;97916.75;;;14.99;100.00
64078;BME280;51039;49.696;10.808;2023-09-19T02:05:13;97919.41;;;14.99;100.00
64078;BME280;51039;49.696;10.808;2023-09-19T02:07:48;97919.66;;;14.97;100.00
64078;BME280;51039;49.696;10.808;2023-09-19T02:10:14;97920.72;;;14.96;100.00
64078;BME280;51039;49.696;10.808;2023-09-19T02:12:39;97925.94;;;14.91;100.00
64078;BME280;51039;49.696;10.808;2023-09-19T02:15:04;97922.00;;;14.94;100.00
64078;BME280;51039;49.696;10.808;2023-09-19T02:17:32;97929.44;;;14.91;100.00
64078;BME280;51039;49.696;10.808;2023-09-19T02:19:58;97926.19;;;14.89;100.00
64078;BME280;51039;49.696;10.808;2023-09-19T02:22:23;97923.47;;;14.84;100.00
64078;BME280;51039;49.696;10.808;2023-09-19T02:24:49;97916.44;;;14.78;100.00
64078;BME280;51039;49.696;10.808;2023-09-19T02:27:15;97917.94;;;14.74;100.00
64078;BME280;51039;49.696;10.808;2023-09-19T02:29:41;97923.59;;;14.61;100.00
64078;BME280;51039;49.696;10.808;2023-09-19T02:32:07;97930.88;;;14.53;100.00
64078;BME280;51039;49.696;10.808;2023-09-19T02:34:34;97931.84;;;14.47;100.00
64078;BME280;51039;49.696;10.808;2023-09-19T02:37:01;97930.44;;;14.45;100.00
64078;BME280;51039;49.696;10.808;2023-09-19T02:39:29;97936.59;;;14.45;100.00
64078;BME280;51039;49.696;10.808;2023-09-19T02:41:55;97939.84;;;14.47;100.00
64078;BME280;51039;49.696;10.808;2023-09-19T02:44:20;97940.16;;;14.51;100.00
64078;BME280;51039;49.696;10.808;2023-09-19T02:46:46;97940.75;;;14.53;100.00
64078;BME280;51039;49.696;10.808;2023-09-19T02:49:11;97940.84;;;14.58;100.00
64078;BME280;51039;49.696;10.808;2023-09-19T02:51:38;97936.09;;;14.60;100.00
64078;BME280;51039;49.696;10.808;2023-09-19T02:54:03;97946.97;;;14.59;100.00
64078;BME280;51039;49.696;10.808;2023-09-19T02:56:29;97941.19;;;14.62;100.00
64078;BME280;51039;49.696;10.808;2023-09-19T02:58:56;97950.88;;;14.68;100.00
64078;BME280;51039;49.696;10.808;2023-09-19T03:01:21;97948.56;;;14.71;100.00
64078;BME280;51039;49.696;10.808;2023-09-19T03:03:47;97947.84;;;14.76;100.00
64078;BME280;51039;49.696;10.808;2023-09-19T03:06:12;97943.56;;;14.75;100.00
64078;BME280;51039;49.696;10.808;2023-09-19T03:08:38;97952.34;;;14.76;100.00
64078;BME280;51039;49.696;10.808;2023-09-19T03:11:04;97955.03;;;14.76;100.00
64078;BME280;51039;49.696;10.808;2023-09-19T03:13:31;97954.44;;;14.73;100.00
64078;BME280;51039;49.696;10.808;2023-09-19T03:15:56;97954.94;;;14.70;100.00
64078;BME280;51039;49.696;10.808;2023-09-19T03:18:23;97956.31;;;14.73;100.00
64078;BME280;51039;49.696;10.808;2023-09-19T03:20:53;97958.19;;;14.72;100.00
64078;BME280;51039;49.696;10.808;2023-09-19T03:23:19;97955.75;;;14.71;100.00
64078;BME280;51039;49.696;10.808;2023-09-19T03:25:45;97962.38;;;14.68;100.00
64078;BME280;51039;49.696;10.808;2023-09-19T03:28:11;97959.94;;;14.67;100.00
64078;BME280;51039;49.696;10.808;2023-09-19T03:30:36;97966.06;;;14.67;100.00
64078;BME280;51039;49.696;10.808;2023-09-19T03:33:01;97961.66;;;14.73;100.00
64078;BME280;51039;49.696;10.808;2023-09-19T03:35:26;97958.03;;;14.79;100.00
64078;BME280;51039;49.696;10.808;2023-09-19T03:37:52;97972.03;;;14.86;100.00
64078;BME280;51039;49.696;10.808;2023-09-19T03:40:17;97966.78;;;14.91;100.00
64078;BME280;51039;49.696;10.808;2023-09-19T03:42:45;97958.06;;;14.96;100.00
64078;BME280;51039;49.696;10.808;2023-09-19T03:45:11;97964.75;;;14.99;100.00
64078;BME280;51039;49.696;10.808;2023-09-19T03:47:39;97966.94;;;15.02;100.00
64078;BME280;51039;49.696;10.808;2023-09-19T03:50:05;97961.22;;;15.10;100.00
64078;BME280;51039;49.696;10.808;2023-09-19T03:52:33;97965.00;;;15.14;100.00
64078;BME280;51039;49.696;10.808;2023-09-19T03:54:58;97974.41;;;15.17;100.00
64078;BME280;51039;49.696;10.808;2023-09-19T03:57:24;97972.53;;;15.17;100.00
64078;BME280;51039;49.696;10.808;2023-09-19T03:59:50;97973.44;;;15.23;100.00
64078;BME280;51039;49.696;10.808;2023-09-19T04:02:18;97982.09;;;15.30;100.00
64078;BME280;51039;49.696;10.808;2023-09-19T04:04:52;97979.16;;;15.31;100.00
64078;BME280;51039;49.696;10.808;2023-09-19T04:07:18;97974.91;;;15.30;100.00
64078;BME280;51039;49.696;10.808;2023-09-19T04:09:47;97983.47;;;15.32;100.00
64078;BME280;51039;49.696;10.808;2023-09-19T04:12:14;97976.25;;;15.33;100.00
64078;BME280;51039;49.696;10.808;2023-09-19T04:14:41;97979.72;;;15.34;100.00
64078;BME280;51039;49.696;10.808;2023-09-19T04:17:07;97983.06;;;15.41;100.00
64078;BME280;51039;49.696;10.808;2023-09-19T04:19:32;97987.09;;;15.43;100.00
64078;BME280;51039;49.696;10.808;2023-09-19T04:21:57;97991.72;;;15.48;100.00
64078;BME280;51039;49.696;10.808;2023-09-19T04:24:23;97991.94;;;15.46;100.00
64078;BME280;51039;49.696;10.808;2023-09-19T04:26:48;97993.31;;;15.49;100.00
64078;BME280;51039;49.696;10.808;2023-09-19T04:29:13;97990.41;;;15.50;100.00
64078;BME280;51039;49.696;10.808;2023-09-19T04:31:39;97997.69;;;15.55;100.00
64078;BME280;51039;49.696;10.808;2023-09-19T04:34:05;97994.53;;;15.58;100.00
64078;BME280;51039;49.696;10.808;2023-09-19T04:36:30;97987.06;;;15.60;100.00
64078;BME280;51039;49.696;10.808;2023-09-19T04:38:56;97991.94;;;15.63;100.00
64078;BME280;51039;49.696;10.808;2023-09-19T04:41:21;97987.16;;;15.65;100.00
64078;BME280;51039;49.696;10.808;2023-09-19T04:43:47;97992.25;;;15.67;100.00
64078;BME280;51039;49.696;10.808;2023-09-19T04:46:14;97993.06;;;15.67;100.00
64078;BME280;51039;49.696;10.808;2023-09-19T04:48:39;97994.69;;;15.68;100.00
64078;BME280;51039;49.696;10.808;2023-09-19T04:51:05;97997.94;;;15.70;100.00
64078;BME280;51039;49.696;10.808;2023-09-19T04:53:30;97998.16;;;15.69;100.00
64078;BME280;51039;49.696;10.808;2023-09-19T04:55:55;98005.94;;;15.70;100.00
64078;BME280;51039;49.696;10.808;2023-09-19T04:58:22;98007.09;;;15.75;100.00
64078;BME280;51039;49.696;10.808;2023-09-19T05:00:47;98014.03;;;15.76;100.00
64078;BME280;51039;49.696;10.808;2023-09-19T05:03:13;98014.88;;;15.76;100.00
64078;BME280;51039;49.696;10.808;2023-09-19T05:05:38;98010.31;;;15.77;100.00
64078;BME280;51039;49.696;10.808;2023-09-19T05:08:06;98018.91;;;15.79;100.00
64078;BME280;51039;49.696;10.808;2023-09-19T05:10:33;98026.72;;;15.85;100.00
64078;BME280;51039;49.696;10.808;2023-09-19T05:12:59;98015.16;;;15.80;100.00
64078;BME280;51039;49.696;10.808;2023-09-19T05:15:26;98020.22;;;15.76;100.00
64078;BME280;51039;49.696;10.808;2023-09-19T05:17:51;98030.28;;;15.74;100.00
64078;BME280;51039;49.696;10.808;2023-09-19T05:20:19;98034.84;;;15.74;100.00
64078;BME280;51039;49.696;10.808;2023-09-19T05:22:57;98030.78;;;15.71;100.00
64078;BME280;51039;49.696;10.808;2023-09-19T05:25:23;98033.91;;;15.68;100.00
64078;BME280;51039;49.696;10.808;2023-09-19T05:27:49;98042.66;;;15.63;100.00
64078;BME280;51039;49.696;10.808;2023-09-19T05:30:18;98042.09;;;15.61;100.00
64078;BME280;51039;49.696;10.808;2023-09-19T05:32:45;98046.22;;;15.52;100.00
64078;BME280;51039;49.696;10.808;2023-09-19T05:35:10;98062.56;;;15.56;100.00
64078;BME280;51039;49.696;10.808;2023-09-19T05:37:37;98048.72;;;15.59;100.00
64078;BME280;51039;49.696;10.808;2023-09-19T05:40:03;98050.91;;;15.62;100.00
64078;BME280;51039;49.696;10.808;2023-09-19T05:42:39;98060.78;;;15.61;100.00
64078;BME280;51039;49.696;10.808;2023-09-19T05:45:06;98066.69;;;15.63;100.00
64078;BME280;51039;49.696;10.808;2023-09-19T05:47:32;98071.47;;;15.61;100.00
64078;BME280;51039;49.696;10.808;2023-09-19T05:49:57;98074.72;;;15.63;100.00
64078;BME280;51039;49.696;10.808;2023-09-19T05:52:24;98069.47;;;15.68;100.00
64078;BME280;51039;49.696;10.808;2023-09-19T05:54:49;98067.34;;;15.70;100.00
64078;BME280;51039;49.696;10.808;2023-09-19T05:57:15;98074.88;;;15.74;100.00
64078;BME280;51039;49.696;10.808;2023-09-19T05:59:41;98074.41;;;15.77;100.00
64078;BME280;51039;49.696;10.808;2023-09-19T06:02:07;98089.69;;;15.81;100.00
64078;BME280;51039;49.696;10.808;2023-09-19T06:04:34;98092.28;;;15.93;100.00
64078;BME280;51039;49.696;10.808;2023-09-19T06:07:00;98089.94;;;15.97;100.00
64078;BME280;51039;49.696;10.808;2023-09-19T06:09:25;98101.41;;;16.14;100.00
64078;BME280;51039;49.696;10.808;2023-09-19T06:11:52;98098.91;;;16.24;100.00
64078;BME280;51039;49.696;10.808;2023-09-19T06:14:18;98102.03;;;16.38;100.00
64078;BME280;51039;49.696;10.808;2023-09-19T06:16:44;98099.19;;;16.28;100.00
64078;BME280;51039;49.696;10.808;2023-09-19T06:19:10;98100.56;;;16.47;100.00
64078;BME280;51039;49.696;10.808;2023-09-19T06:21:35;98101.16;;;16.55;100.00
64078;BME280;51039;49.696;10.808;2023-09-19T06:24:01;98108.56;;;16.69;100.00
64078;BME280;51039;49.696;10.808;2023-09-19T06:26:27;98111.09;;;16.98;100.00
64078;BME280;51039;49.696;10.808;2023-09-19T06:28:53;98102.63;;;17.34;100.00
64078;BME280;51039;49.696;10.808;2023-09-19T06:31:20;98107.56;;;17.47;100.00
64078;BME280;51039;49.696;10.808;2023-09-19T06:33:47;98104.81;;;17.96;100.00
64078;BME280;51039;49.696;10.808;2023-09-19T06:36:13;98108.03;;;17.98;100.00
64078;BME280;51039;49.696;10.808;2023-09-19T06:38:40;98106.94;;;17.99;100.00
64078;BME280;51039;49.696;10.808;2023-09-19T06:41:06;98115.44;;;18.23;100.00
64078;BME280;51039;49.696;10.808;2023-09-19T06:43:33;98112.81;;;17.91;100.00
64078;BME280;51039;49.696;10.808;2023-09-19T06:45:59;98111.44;;;18.26;100.00
64078;BME280;51039;49.696;10.808;2023-09-19T06:48:25;98117.38;;;18.33;100.00
64078;BME280;51039;49.696;10.808;2023-09-19T06:50:52;98116.66;;;18.05;100.00
64078;BME280;51039;49.696;10.808;2023-09-19T06:53:19;98122.31;;;18.09;100.00
64078;BME280;51039;49.696;10.808;2023-09-19T06:55:44;98132.09;;;19.62;94.90
64078;BME280;51039;49.696;10.808;2023-09-19T06:58:10;98130.72;;;20.52;85.84
64078;BME280;51039;49.696;10.808;2023-09-19T07:00:36;98127.31;;;21.11;81.03
64078;BME280;51039;49.696;10.808;2023-09-19T07:03:03;98127.69;;;21.39;77.52
64078;BME280;51039;49.696;10.808;2023-09-19T07:05:30;98131.56;;;23.08;70.42
64078;BME280;51039;49.696;10.808;2023-09-19T07:07:57;98128.19;;;23.17;69.69
64078;BME280;51039;49.696;10.808;2023-09-19T07:10:24;98142.53;;;22.45;72.90
64078;BME280;51039;49.696;10.808;2023-09-19T07:13:03;98148.53;;;20.22;79.77
64078;BME280;51039;49.696;10.808;2023-09-19T07:15:37;98143.06;;;19.45;85.33
64078;BME280;51039;49.696;10.808;2023-09-19T07:18:11;98135.31;;;19.49;88.53
64078;BME280;51039;49.696;10.808;2023-09-19T07:20:37;98149.25;;;19.46;86.01
64078;BME280;51039;49.696;10.808;2023-09-19T07:23:03;98140.84;;;19.16;87.44
64078;BME280;51039;49.696;10.808;2023-09-19T07:25:28;98152.28;;;19.95;81.29
64078;BME280;51039;49.696;10.808;2023-09-19T07:27:55;98152.31;;;19.85;82.00
64078;BME280;51039;49.696;10.808;2023-09-19T07:30:21;98148.75;;;19.54;85.12
64078;BME280;51039;49.696;10.808;2023-09-19T07:32:47;98157.88;;;19.53;83.51
64078;BME280;51039;49.696;10.808;2023-09-19T07:35:12;98161.19;;;19.96;81.17
64078;BME280;51039;49.696;10.808;2023-09-19T07:37:37;98161.28;;;20.92;76.15
64078;BME280;51039;49.696;10.808;2023-09-19T07:40:03;98160.25;;;22.27;68.04
64078;BME280;51039;49.696;10.808;2023-09-19T07:42:32;98161.94;;;22.47;67.25
64078;BME280;51039;49.696;10.808;2023-09-19T07:45:03;98168.31;;;21.53;67.61
64078;BME280;51039;49.696;10.808;2023-09-19T07:47:29;98160.38;;;22.06;66.72
64078;BME280;51039;49.696;10.808;2023-09-19T07:49:57;98173.25;;;21.80;68.90
64078;BME280;51039;49.696;10.808;2023-09-19T07:52:22;98182.16;;;21.26;70.14
64078;BME280;51039;49.696;10.808;2023-09-19T07:54:48;98190.13;;;21.56;67.82
64078;BME280;51039;49.696;10.808;2023-09-19T07:57:14;98191.75;;;21.52;67.04
64078;BME280;51039;49.696;10.808;2023-09-19T07:59:40;98182.72;;;22.12;63.02
64078;BME280;51039;49.696;10.808;2023-09-19T08:02:07;98192.63;;;22.56;62.37
64078;BME280;51039;49.696;10.808;2023-09-19T08:04:40;98194.97;;;24.11;56.97
64078;BME280;51039;49.696;10.808;2023-09-19T08:07:06;98191.44;;;25.18;52.37
64078;BME280;51039;49.696;10.808;2023-09-19T08:09:33;98199.47;;;24.81;53.78
64078;BME280;51039;49.696;10.808;2023-09-19T08:11:59;98206.91;;;24.76;52.41
64078;BME280;51039;49.696;10.808;2023-09-19T08:14:27;98208.81;;;25.03;51.37
64078;BME280;51039;49.696;10.808;2023-09-19T08:16:56;98212.53;;;24.93;50.90
64078;BME280;51039;49.696;10.808;2023-09-19T08:19:22;98214.88;;;22.96;55.96
64078;BME280;51039;49.696;10.808;2023-09-19T08:21:48;98225.22;;;21.91;59.12
64078;BME280;51039;49.696;10.808;2023-09-19T08:24:13;98217.38;;;21.94;59.23
64078;BME280;51039;49.696;10.808;2023-09-19T08:26:39;98224.13;;;21.42;60.72
64078;BME280;51039;49.696;10.808;2023-09-19T08:29:05;98226.13;;;22.15;60.11
64078;BME280;51039;49.696;10.808;2023-09-19T08:31:33;98209.38;;;22.53;58.10
64078;BME280;51039;49.696;10.808;2023-09-19T08:33:58;98214.94;;;22.91;57.36
64078;BME280;51039;49.696;10.808;2023-09-19T08:36:24;98216.19;;;23.66;55.42
64078;BME280;51039;49.696;10.808;2023-09-19T08:38:50;98225.75;;;23.39;56.44
64078;BME280;51039;49.696;10.808;2023-09-19T08:41:16;98225.63;;;23.01;57.28
64078;BME280;51039;49.696;10.808;2023-09-19T08:43:42;98228.28;;;23.06;56.16
64078;BME280;51039;49.696;10.808;2023-09-19T08:46:10;98216.56;;;21.94;58.29
64078;BME280;51039;49.696;10.808;2023-09-19T08:51:41;98228.69;;;21.42;62.59
64078;BME280;51039;49.696;10.808;2023-09-19T08:54:25;98224.53;;;21.75;59.21
64078;BME280;51039;49.696;10.808;2023-09-19T08:56:51;98228.91;;;21.55;58.57
64078;BME280;51039;49.696;10.808;2023-09-19T08:59:21;98231.91;;;20.78;61.05
64078;BME280;51039;49.696;10.808;2023-09-19T09:01:50;98237.91;;;21.30;60.83
64078;BME280;51039;49.696;10.808;2023-09-19T09:04:18;98237.06;;;21.45;60.04
64078;BME280;51039;49.696;10.808;2023-09-19T09:06:45;98236.47;;;21.59;59.46
64078;BME280;51039;49.696;10.808;2023-09-19T09:09:14;98240.97;;;21.73;58.21
64078;BME280;51039;49.696;10.808;2023-09-19T09:11:40;98243.66;;;22.52;57.10
64078;BME280;51039;49.696;10.808;2023-09-19T09:14:06;98249.38;;;22.11;58.61
64078;BME280;51039;49.696;10.808;2023-09-19T09:16:32;98263.16;;;22.05;57.69
64078;BME280;51039;49.696;10.808;2023-09-19T09:18:58;98250.09;;;22.17;57.93
64078;BME280;51039;49.696;10.808;2023-09-19T09:21:26;98244.25;;;22.10;59.57
64078;BME280;51039;49.696;10.808;2023-09-19T09:23:52;98248.38;;;21.47;61.10
64078;BME280;51039;49.696;10.808;2023-09-19T09:27:04;98251.72;;;21.08;61.36
64078;BME280;51039;49.696;10.808;2023-09-19T09:29:03;98254.75;;;20.45;63.73
64078;BME280;51039;49.696;10.808;2023-09-19T09:31:29;98253.56;;;21.23;62.46
64078;BME280;51039;49.696;10.808;2023-09-19T09:33:55;98257.06;;;21.24;62.04
64078;BME280;51039;49.696;10.808;2023-09-19T09:36:33;98256.41;;;20.62;64.55
64078;BME280;51039;49.696;10.808;2023-09-19T09:39:08;98255.00;;;20.90;64.50
64078;BME280;51039;49.696;10.808;2023-09-19T09:41:43;98261.22;;;20.80;64.91
64078;BME280;51039;49.696;10.808;2023-09-19T09:44:15;98262.31;;;20.79;65.08
64078;BME280;51039;49.696;10.808;2023-09-19T09:46:47;98258.19;;;21.77;61.77
64078;BME280;51039;49.696;10.808;2023-09-19T09:49:25;98254.88;;;21.91;61.54
64078;BME280;51039;49.696;10.808;2023-09-19T09:52:03;98262.28;;;22.14;60.86
64078;BME280;51039;49.696;10.808;2023-09-19T09:54:32;98255.47;;;21.83;60.30
64078;BME280;51039;49.696;10.808;2023-09-19T09:57:09;98262.13;;;21.35;61.85
64078;BME280;51039;49.696;10.808;2023-09-19T10:02:27;98246.81;;;21.26;59.86
64078;BME280;51039;49.696;10.808;2023-09-19T10:05:11;98240.84;;;21.34;58.66
64078;BME280;51039;49.696;10.808;2023-09-19T10:07:46;98249.75;;;21.45;59.31
64078;BME280;51039;49.696;10.808;2023-09-19T10:10:34;98247.72;;;21.71;58.71
64078;BME280;51039;49.696;10.808;2023-09-19T10:13:06;98238.00;;;22.54;55.89
64078;BME280;51039;49.696;10.808;2023-09-19T10:15:37;98233.47;;;22.44;55.27
64078;BME280;51039;49.696;10.808;2023-09-19T10:18:04;98243.63;;;22.23;55.37
64078;BME280;51039;49.696;10.808;2023-09-19T10:20:30;98240.72;;;22.49;55.50
64078;BME280;51039;49.696;10.808;2023-09-19T10:23:00;98243.47;;;22.44;54.38
64078;BME280;51039;49.696;10.808;2023-09-19T10:25:38;98241.22;;;22.56;54.15
64078;BME280;51039;49.696;10.808;2023-09-19T10:28:08;98234.78;;;22.52;53.73
64078;BME280;51039;49.696;10.808;2023-09-19T10:30:40;98237.81;;;22.06;55.09
64078;BME280;51039;49.696;10.808;2023-09-19T10:33:12;98238.63;;;22.01;54.31
64078;BME280;51039;49.696;10.808;2023-09-19T10:35:40;98239.94;;;21.64;54.97
64078;BME280;51039;49.696;10.808;2023-09-19T10:38:12;98245.22;;;21.85;54.23
64078;BME280;51039;49.696;10.808;2023-09-19T10:40:43;98245.94;;;21.46;56.55
64078;BME280;51039;49.696;10.808;2023-09-19T10:43:15;98244.59;;;21.38;55.00
64078;BME280;51039;49.696;10.808;2023-09-19T10:45:45;98235.66;;;21.58;54.88
64078;BME280;51039;49.696;10.808;2023-09-19T10:48:14;98239.56;;;22.26;52.49
64078;BME280;51039;49.696;10.808;2023-09-19T10:51:06;98245.31;;;21.69;53.31
64078;BME280;51039;49.696;10.808;2023-09-19T10:53:42;98248.63;;;22.01;53.72
64078;BME280;51039;49.696;10.808;2023-09-19T10:56:56;98259.47;;;22.64;51.57
64078;BME280;51039;49.696;10.808;2023-09-19T11:01:44;98237.69;;;22.21;50.05
64078;BME280;51039;49.696;10.808;2023-09-19T11:04:26;98253.41;;;22.09;51.29
64078;BME280;51039;49.696;10.808;2023-09-19T11:09:42;98253.16;;;21.61;53.84
64078;BME280;51039;49.696;10.808;2023-09-19T11:14:56;98241.19;;;22.27;53.61
64078;BME280;51039;49.696;10.808;2023-09-19T11:17:40;98232.09;;;22.47;50.40
64078;BME280;51039;49.696;10.808;2023-09-19T11:33:21;98222.09;;;22.77;49.14
64078;BME280;51039;49.696;10.808;2023-09-19T11:36:01;98222.75;;;22.34;49.47
64078;BME280;51039;49.696;10.808;2023-09-19T11:43:49;98226.09;;;22.55;48.83
64078;BME280;51039;49.696;10.808;2023-09-19T11:46:23;98229.75;;;22.01;49.39
64078;BME280;51039;49.696;10.808;2023-09-19T11:48:50;98231.34;;;22.02;48.69
64078;BME280;51039;49.696;10.808;2023-09-19T11:51:17;98222.34;;;22.16;49.69
64078;BME280;51039;49.696;10.808;2023-09-19T11:53:53;98228.66;;;22.41;49.04
64078;BME280;51039;49.696;10.808;2023-09-19T11:56:20;98214.09;;;22.37;48.37
64078;BME280;51039;49.696;10.808;2023-09-19T11:58:49;98220.81;;;22.69;47.76
64078;BME280;51039;49.696;10.808;2023-09-19T12:01:31;98224.78;;;22.52;48.83
64078;BME280;51039;49.696;10.808;2023-09-19T12:03:59;98216.19;;;22.45;48.50
64078;BME280;51039;49.696;10.808;2023-09-19T12:06:27;98225.31;;;22.15;49.33
64078;BME280;51039;49.696;10.808;2023-09-19T12:09:00;98220.69;;;22.26;49.70
64078;BME280;51039;49.696;10.808;2023-09-19T12:11:29;98228.06;;;22.10;49.80
64078;BME280;51039;49.696;10.808;2023-09-19T12:13:58;98226.69;;;21.73;50.92
64078;BME280;51039;49.696;10.808;2023-09-19T12:16:25;98227.84;;;21.62;50.62
64078;BME280;51039;49.696;10.808;2023-09-19T12:18:55;98230.09;;;21.89;50.40
64078;BME280;51039;49.696;10.808;2023-09-19T12:21:22;98218.50;;;22.23;50.40
64078;BME280;51039;49.696;10.808;2023-09-19T12:23:59;98215.91;;;22.47;49.26
64078;BME280;51039;49.696;10.808;2023-09-19T12:26:43;98219.16;;;22.44;46.52
64078;BME280;51039;49.696;10.808;2023-09-19T12:29:13;98220.78;;;22.05;47.67
64078;BME280;51039;49.696;10.808;2023-09-19T12:31:55;98223.75;;;22.09;47.72
64078;BME280;51039;49.696;10.808;2023-09-19T12:34:29;98219.75;;;22.01;47.96
64078;BME280;51039;49.696;10.808;2023-09-19T12:37:14;98215.75;;;21.93;48.41
64078;BME280;51039;49.696;10.808;2023-09-19T12:39:45;98225.09;;;22.11;49.83
64078;BME280;51039;49.696;10.808;2023-09-19T12:42:16;98229.81;;;21.90;48.82
64078;BME280;51039;49.696;10.808;2023-09-19T12:44:48;98229.59;;;21.27;50.39
64078;BME280;51039;49.696;10.808;2023-09-19T12:47:20;98225.25;;;21.86;51.19
64078;BME280;51039;49.696;10.808;2023-09-19T12:52:39;98218.09;;;22.45;49.04
64078;BME280;51039;49.696;10.808;2023-09-19T12:55:05;98217.44;;;22.29;48.77
64078;BME280;51039;49.696;10.808;2023-09-19T12:57:32;98217.72;;;22.17;48.34
64078;BME280;51039;49.696;10.808;2023-09-19T13:00:00;98211.25;;;22.18;48.61
64078;BME280;51039;49.696;10.808;2023-09-19T13:02:31;98212.03;;;22.29;48.04
64078;BME280;51039;49.696;10.808;2023-09-19T13:04:56;98206.63;;;22.29;48.26
64078;BME280;51039;49.696;10.808;2023-09-19T13:07:43;98208.53;;;22.23;48.43
64078;BME280;51039;49.696;10.808;2023-09-19T13:10:10;98192.56;;;22.32;49.28
64078;BME280;51039;49.696;10.808;2023-09-19T13:12:37;98202.09;;;22.19;48.22
64078;BME280;51039;49.696;10.808;2023-09-19T13:15:10;98208.06;;;22.11;48.65
64078;BME280;51039;49.696;10.808;2023-09-19T13:17:43;98203.06;;;21.94;47.94
64078;BME280;51039;49.696;10.808;2023-09-19T13:20:20;98204.78;;;21.85;47.62
64078;BME280;51039;49.696;10.808;2023-09-19T13:22:52;98195.75;;;21.60;48.31
64078;BME280;51039;49.696;10.808;2023-09-19T13:25:19;98195.09;;;21.79;48.50
64078;BME280;51039;49.696;10.808;2023-09-19T13:27:46;98190.06;;;21.67;47.99
64078;BME280;51039;49.696;10.808;2023-09-19T13:30:17;98189.94;;;21.82;48.67
64078;BME280;51039;49.696;10.808;2023-09-19T13:32:43;98195.28;;;21.48;49.74
64078;BME280;51039;49.696;10.808;2023-09-19T13:35:09;98190.56;;;21.74;49.53
64078;BME280;51039;49.696;10.808;2023-09-19T13:37:35;98190.19;;;21.86;49.76
64078;BME280;51039;49.696;10.808;2023-09-19T13:40:06;98189.72;;;21.24;49.34